Time;durP1;ratioP1;P1;durP2;ratioP2;P2;SDS_P1;SDS_P2;PMS_P1;PMS_P2;Temp;Humidity;BMP_temperature;BMP_pressure;BME280_temperature;BME280_humidity;BME280_pressure;Samples;Min_cycle;Max_cycle;Signal;HPM_P1;HPM_P2
2023/06/30 00:00:54;;;;;;;6.22;5.63;;;15.20;99.90;;;;;;6347967;22;20002;-72
2023/06/30 00:03:22;;;;;;;6.95;5.55;;;15.10;99.90;;;;;;6309920;22;20015;-71
2023/06/30 00:05:48;;;;;;;10.02;6.38;;;15.10;99.90;;;;;;6258079;22;19999;-72
2023/06/30 00:08:15;;;;;;;6.30;5.70;;;15.10;99.90;;;;;;6283908;22;20070;-71
2023/06/30 00:10:41;;;;;;;9.98;6.78;;;15.10;99.90;;;;;;6346941;22;20451;-71
2023/06/30 00:13:07;;;;;;;9.75;7.15;;;15.10;99.90;;;;;;6309741;22;20030;-71
2023/06/30 00:15:33;;;;;;;8.23;5.88;;;15.10;99.90;;;;;;6284249;22;19998;-71
2023/06/30 00:17:58;;;;;;;11.27;6.32;;;15.10;99.90;;;;;;6347896;22;20006;-71
2023/06/30 00:20:24;;;;;;;7.60;6.90;;;15.10;99.90;;;;;;6347319;22;20040;-71
2023/06/30 00:22:52;;;;;;;7.72;6.97;;;15.00;99.90;;;;;;6283696;22;20014;-71
2023/06/30 00:25:18;;;;;;;12.38;6.30;;;15.00;99.90;;;;;;6284459;22;19998;-72
2023/06/30 00:27:43;;;;;;;7.63;6.95;;;15.00;99.90;;;;;;6347399;22;19995;-71
2023/06/30 00:30:10;;;;;;;8.50;5.85;;;15.00;99.90;;;;;;6309873;22;20430;-71
2023/06/30 00:32:36;;;;;;;6.05;5.55;;;15.00;99.90;;;;;;6308904;22;20013;-71
2023/06/30 00:35:03;;;;;;;5.78;5.30;;;14.90;99.90;;;;;;6284113;22;19995;-72
2023/06/30 00:37:29;;;;;;;8.38;5.97;;;14.90;99.90;;;;;;6283963;22;20326;-71
2023/06/30 00:39:55;;;;;;;8.25;6.68;;;15.00;99.90;;;;;;6309424;22;20003;-71
2023/06/30 00:42:21;;;;;;;5.75;5.25;;;15.00;99.90;;;;;;6283748;22;20345;-71
2023/06/30 00:44:47;;;;;;;7.03;6.43;;;14.90;99.90;;;;;;6284246;22;20426;-72
2023/06/30 00:47:13;;;;;;;10.98;6.18;;;14.90;99.90;;;;;;6283878;22;20082;-71
2023/06/30 00:49:40;;;;;;;7.20;6.15;;;14.80;99.90;;;;;;6284114;22;20002;-71
2023/06/30 00:52:07;;;;;;;6.05;5.60;;;14.80;99.90;;;;;;6283964;22;20049;-71
2023/06/30 00:54:33;;;;;;;6.18;5.57;;;14.80;99.90;;;;;;6284022;22;20417;-72
2023/06/30 00:57:04;;;;;;;5.55;5.07;;;14.80;99.90;;;;;;6283922;22;20003;-71
2023/06/30 00:59:30;;;;;;;7.10;6.50;;;14.70;99.90;;;;;;6284028;22;20002;-71
2023/06/30 01:02:05;;;;;;;8.80;4.82;;;14.70;99.90;;;;;;6308621;22;20003;-74
2023/06/30 01:04:36;;;;;;;13.48;5.97;;;14.70;99.90;;;;;;6284012;22;19999;-74
2023/06/30 01:07:40;;;;;;;6.15;5.53;;;14.60;99.90;;;;;;6284064;22;19998;-70
2023/06/30 01:10:14;;;;;;;7.47;5.78;;;14.50;99.90;;;;;;6347416;22;20006;-72
2023/06/30 01:12:42;;;;;;;8.60;4.80;;;14.50;99.90;;;;;;6283255;22;20065;-74
2023/06/30 01:15:10;;;;;;;;;;;14.40;99.90;;;;;;6320220;22;19991;-73
2023/06/30 01:17:41;;;;;;;9.52;6.18;;;14.30;99.90;;;;;;6283959;22;19903;-70
2023/06/30 01:20:10;;;;;;;6.95;4.78;;;14.30;99.90;;;;;;6284054;22;20089;-72
2023/06/30 01:22:44;;;;;;;9.30;6.57;;;14.30;99.90;;;;;;6283624;22;20014;-70
2023/06/30 01:25:19;;;;;;;7.22;6.53;;;14.40;99.90;;;;;;6320171;22;19999;-74
2023/06/30 01:27:45;;;;;;;8.25;5.63;;;14.30;99.90;;;;;;6319616;22;19995;-71
2023/06/30 01:30:13;;;;;;;9.32;6.85;;;14.30;99.90;;;;;;6347378;22;20576;-70
2023/06/30 01:32:40;;;;;;;6.30;5.07;;;14.30;99.90;;;;;;6282895;22;20433;-71
2023/06/30 01:35:06;;;;;;;9.80;6.93;;;14.30;99.90;;;;;;6347497;22;20002;-71
2023/06/30 01:37:32;;;;;;;7.47;6.35;;;14.30;99.90;;;;;;6283555;22;19995;-75
2023/06/30 01:40:00;;;;;;;6.43;5.82;;;14.30;99.90;;;;;;6347045;22;20091;-71
2023/06/30 01:42:27;;;;;;;6.32;5.82;;;14.30;99.90;;;;;;6309019;22;20429;-70
2023/06/30 01:44:55;;;;;;;6.63;6.03;;;14.20;99.90;;;;;;6283705;22;20030;-71
2023/06/30 01:47:21;;;;;;;6.43;5.90;;;14.20;99.90;;;;;;6347595;22;19995;-70
2023/06/30 01:49:47;;;;;;;6.60;5.68;;;14.20;99.90;;;;;;6320258;22;20437;-72
2023/06/30 01:52:13;;;;;;;6.50;5.38;;;14.20;99.90;;;;;;6347459;22;20047;-71
2023/06/30 01:54:39;;;;;;;9.77;7.03;;;14.20;99.90;;;;;;6309565;22;20030;-71
2023/06/30 01:57:05;;;;;;;8.73;7.88;;;14.20;99.90;;;;;;6322221;22;20421;-71
2023/06/30 01:59:31;;;;;;;6.68;6.18;;;14.20;99.90;;;;;;6285597;22;19999;-70
2023/06/30 02:01:58;;;;;;;7.82;6.03;;;14.20;99.90;;;;;;6310822;22;20056;-70
2023/06/30 02:04:24;;;;;;;8.30;5.95;;;14.20;99.90;;;;;;6286066;22;20005;-71
2023/06/30 02:06:50;;;;;;;9.10;6.40;;;14.20;99.90;;;;;;6322080;22;20085;-70
2023/06/30 02:09:16;;;;;;;7.10;6.50;;;14.20;99.90;;;;;;6285487;22;20052;-70
2023/06/30 02:11:43;;;;;;;6.63;6.07;;;14.20;99.90;;;;;;6285683;22;20059;-70
2023/06/30 02:14:14;;;;;;;11.77;7.20;;;14.10;99.90;;;;;;6286514;22;19995;-70
2023/06/30 02:16:39;;;;;;;7.10;6.55;;;14.10;99.90;;;;;;6259525;22;20021;-71
2023/06/30 02:19:05;;;;;;;13.50;7.13;;;14.10;99.90;;;;;;6285421;22;20010;-70
2023/06/30 02:21:31;;;;;;;11.18;7.70;;;14.20;99.90;;;;;;6321120;22;20462;-71
2023/06/30 02:23:57;;;;;;;6.78;6.22;;;14.20;99.90;;;;;;6349118;22;20007;-73
2023/06/30 02:26:23;;;;;;;7.65;6.18;;;14.20;99.90;;;;;;6321795;22;20021;-71
2023/06/30 02:28:49;;;;;;;7.07;6.45;;;14.20;99.90;;;;;;6259193;22;20009;-71
2023/06/30 02:31:17;;;;;;;6.35;5.82;;;14.00;99.90;;;;;;6285757;22;20010;-70
2023/06/30 02:33:42;;;;;;;8.57;7.57;;;14.10;99.90;;;;;;6259949;22;20010;-71
2023/06/30 02:36:09;;;;;;;8.77;7.30;;;14.10;99.90;;;;;;6285873;22;20461;-71
2023/06/30 02:38:35;;;;;;;15.95;6.57;;;14.10;99.90;;;;;;6284961;22;20473;-71
2023/06/30 02:41:01;;;;;;;6.70;5.90;;;14.10;99.90;;;;;;6285199;22;20025;-70
2023/06/30 02:43:27;;;;;;;6.78;5.45;;;14.10;99.90;;;;;;6285617;22;20015;-71
2023/06/30 02:45:53;;;;;;;6.95;4.95;;;14.10;99.90;;;;;;6311095;22;20013;-71
2023/06/30 02:48:19;;;;;;;7.13;6.32;;;14.10;99.90;;;;;;6310897;22;20003;-73
2023/06/30 02:50:45;;;;;;;9.23;6.70;;;14.10;99.90;;;;;;6285478;22;20469;-71
2023/06/30 02:53:13;;;;;;;9.63;6.20;;;14.10;99.90;;;;;;6311071;22;19995;-72
2023/06/30 02:55:39;;;;;;;7.90;5.78;;;14.10;99.90;;;;;;6349205;22;20056;-71
2023/06/30 02:58:06;;;;;;;14.75;6.80;;;14.10;99.90;;;;;;6260070;22;20002;-72
2023/06/30 03:00:34;;;;;;;5.55;4.45;;;14.10;99.90;;;;;;6286014;22;20093;-71
2023/06/30 03:03:00;;;;;;;9.50;5.35;;;14.10;99.90;;;;;;6285204;22;20391;-71
2023/06/30 03:05:25;;;;;;;6.55;5.65;;;14.10;99.90;;;;;;6338711;22;20326;-73
2023/06/30 03:07:51;;;;;;;8.57;7.10;;;14.10;99.90;;;;;;6284121;22;20318;-70
2023/06/30 03:10:19;;;;;;;8.57;6.13;;;14.00;99.90;;;;;;6311054;22;20456;-70
2023/06/30 03:12:46;;;;;;;7.03;6.28;;;14.00;99.90;;;;;;6259611;22;19995;-71
2023/06/30 03:15:12;;;;;;;14.43;6.63;;;14.00;99.90;;;;;;6284553;22;20014;-70
2023/06/30 03:17:38;;;;;;;7.63;6.05;;;14.00;99.90;;;;;;6284994;22;20003;-73
2023/06/30 03:20:12;;;;;;;8.35;5.55;;;14.00;99.90;;;;;;6285258;22;20002;-74
2023/06/30 03:22:40;;;;;;;7.18;6.45;;;13.90;99.90;;;;;;6284486;22;20015;-70
2023/06/30 03:25:08;;;;;;;10.45;7.60;;;13.90;99.90;;;;;;6310560;22;20006;-71
2023/06/30 03:27:34;;;;;;;4.78;4.38;;;13.90;99.90;;;;;;6285173;22;20003;-71
2023/06/30 03:30:05;;;;;;;12.50;6.15;;;13.80;99.90;;;;;;6310512;22;19991;-70
2023/06/30 03:32:33;;;;;;;6.53;5.32;;;13.80;99.90;;;;;;6284866;22;20003;-71
2023/06/30 03:35:03;;;;;;;8.05;6.30;;;13.80;99.90;;;;;;6285148;22;20498;-71
2023/06/30 03:37:31;;;;;;;11.52;6.03;;;13.80;99.90;;;;;;6310917;22;20012;-71
2023/06/30 03:40:00;;;;;;;9.43;5.70;;;13.70;99.90;;;;;;6285112;22;20314;-71
2023/06/30 03:42:27;;;;;;;6.95;5.78;;;13.60;99.90;;;;;;6285124;22;20613;-71
2023/06/30 03:44:52;;;;;;;7.25;5.60;;;13.50;99.90;;;;;;6348704;22;19998;-71
2023/06/30 03:47:18;;;;;;;7.20;6.50;;;13.50;99.90;;;;;;6310486;22;20003;-71
2023/06/30 03:49:44;;;;;;;10.43;5.72;;;13.40;99.90;;;;;;6284343;22;20090;-71
2023/06/30 03:52:10;;;;;;;7.55;5.95;;;13.30;99.90;;;;;;6284606;22;20030;-73
2023/06/30 03:54:36;;;;;;;8.88;5.43;;;13.30;99.90;;;;;;6310211;22;19997;-71
2023/06/30 03:57:02;;;;;;;15.82;7.10;;;13.20;99.90;;;;;;6284461;22;20073;-72
2023/06/30 03:59:28;;;;;;;13.00;7.57;;;13.20;99.90;;;;;;6284588;22;19998;-71
2023/06/30 04:01:54;;;;;;;8.55;7.05;;;13.20;99.90;;;;;;6345991;22;19999;-73
2023/06/30 04:04:20;;;;;;;7.97;5.55;;;13.30;99.90;;;;;;6294854;22;20015;-71
2023/06/30 04:06:47;;;;;;;9.50;6.20;;;13.30;99.90;;;;;;6348799;22;20003;-73
2023/06/30 04:09:13;;;;;;;11.50;7.03;;;13.30;99.90;;;;;;6284688;22;19995;-71
2023/06/30 04:11:39;;;;;;;8.85;6.07;;;13.30;99.90;;;;;;6284252;22;19998;-71
2023/06/30 04:14:05;;;;;;;9.18;7.60;;;13.30;99.90;;;;;;6347967;22;19995;-71
2023/06/30 04:16:31;;;;;;;8.95;7.85;;;13.30;99.90;;;;;;6284011;22;20031;-73
2023/06/30 04:18:57;;;;;;;12.48;7.88;;;13.40;99.90;;;;;;6294313;22;20006;-73
2023/06/30 04:21:23;;;;;;;11.73;6.78;;;13.40;99.90;;;;;;6348116;22;20007;-72
2023/06/30 04:23:48;;;;;;;7.95;6.20;;;13.40;99.90;;;;;;6284599;22;20007;-71
2023/06/30 04:26:17;;;;;;;11.85;6.00;;;13.40;99.90;;;;;;6284610;22;20365;-71
2023/06/30 04:28:44;;;;;;;7.78;5.68;;;13.40;99.90;;;;;;6347791;22;19991;-71
2023/06/30 04:31:11;;;;;;;9.85;6.30;;;14.00;99.90;;;;;;6283620;22;20834;-72
2023/06/30 04:33:37;;;;;;;7.32;6.07;;;14.00;99.90;;;;;;6337350;22;20462;-75
2023/06/30 04:36:03;;;;;;;8.82;4.97;;;14.40;99.90;;;;;;6282478;22;20003;-73
2023/06/30 04:38:30;;;;;;;7.38;4.70;;;14.70;99.90;;;;;;6283062;22;19999;-72
2023/06/30 04:40:56;;;;;;;5.60;5.05;;;15.20;99.90;;;;;;6347885;22;20453;-71
2023/06/30 04:43:22;;;;;;;9.07;4.70;;;15.70;99.90;;;;;;6293638;22;20006;-72
2023/06/30 04:45:48;;;;;;;10.98;5.60;;;16.40;99.90;;;;;;6283903;22;20002;-75
2023/06/30 04:48:14;;;;;;;6.55;5.25;;;17.10;99.90;;;;;;6258551;22;19998;-71
2023/06/30 04:50:40;;;;;;;10.40;5.15;;;17.60;99.90;;;;;;6257875;22;20056;-71
2023/06/30 04:53:06;;;;;;;4.93;3.67;;;18.70;99.90;;;;;;6319324;22;19999;-71
2023/06/30 04:55:31;;;;;;;7.38;3.33;;;19.60;99.90;;;;;;6283408;22;20006;-72
2023/06/30 04:57:58;;;;;;;5.18;3.75;;;20.40;99.90;;;;;;6347288;22;19995;-72
2023/06/30 05:00:25;;;;;;;7.88;4.45;;;20.90;99.90;;;;;;6283778;22;20006;-72
2023/06/30 05:02:51;;;;;;;3.47;3.13;;;21.40;99.90;;;;;;6308208;22;20011;-72
2023/06/30 05:05:17;;;;;;;3.55;3.05;;;22.00;99.90;;;;;;6319858;22;20003;-73
2023/06/30 05:07:43;;;;;;;7.30;3.35;;;22.10;99.90;;;;;;6283529;22;20052;-74
2023/06/30 05:10:10;;;;;;;7.47;3.63;;;22.80;99.90;;;;;;6258254;22;20046;-73
2023/06/30 05:12:36;;;;;;;3.40;3.10;;;22.60;99.90;;;;;;6257587;22;20307;-71
2023/06/30 05:15:02;;;;;;;5.90;3.42;;;22.60;99.90;;;;;;6281522;22;20021;-72
2023/06/30 05:17:28;;;;;;;3.15;2.80;;;22.60;99.90;;;;;;6318594;22;20074;-72
2023/06/30 05:19:54;;;;;;;6.80;3.72;;;23.00;99.90;;;;;;6319747;22;20434;-72
2023/06/30 05:22:21;;;;;;;4.13;3.33;;;23.30;99.90;;;;;;6346268;22;20003;-72
2023/06/30 05:24:47;;;;;;;8.73;4.10;;;23.70;99.90;;;;;;6309187;22;20023;-73
2023/06/30 05:27:14;;;;;;;3.63;2.60;;;24.40;99.90;;;;;;6283692;22;20364;-72
2023/06/30 05:29:40;;;;;;;8.60;3.22;;;24.80;99.90;;;;;;6319721;22;20010;-75
2023/06/30 05:32:07;;;;;;;7.45;3.88;;;25.40;99.90;;;;;;6317983;22;20007;-71
2023/06/30 05:34:33;;;;;;;8.07;3.13;;;25.80;98.90;;;;;;6311952;22;20003;-71
2023/06/30 05:36:58;;;;;;;8.13;4.10;;;26.40;98.20;;;;;;6284933;22;20021;-71
2023/06/30 05:39:25;;;;;;;6.28;2.88;;;27.00;96.60;;;;;;6285764;22;20444;-72
2023/06/30 05:41:50;;;;;;;5.07;2.65;;;27.50;96.50;;;;;;6348446;22;19999;-71
2023/06/30 05:44:16;;;;;;;3.55;3.22;;;27.20;95.00;;;;;;6321870;22;20038;-71
2023/06/30 05:46:42;;;;;;;8.98;4.47;;;28.50;93.10;;;;;;6322501;22;19999;-72
2023/06/30 05:49:08;;;;;;;11.85;2.90;;;28.40;92.90;;;;;;6349917;22;20006;-72
2023/06/30 05:51:35;;;;;;;6.45;3.13;;;29.00;92.40;;;;;;6284919;22;19995;-71
2023/06/30 05:54:02;;;;;;;9.68;3.13;;;29.00;90.70;;;;;;6285899;22;19999;-71
2023/06/30 05:56:28;;;;;;;12.68;4.05;;;28.80;90.10;;;;;;6348246;22;20071;-72
2023/06/30 05:58:55;;;;;;;6.38;3.25;;;29.20;90.20;;;;;;6348736;22;20071;-75
2023/06/30 06:01:21;;;;;;;2.85;2.05;;;29.00;89.70;;;;;;6285111;22;19999;-71
2023/06/30 06:03:47;;;;;;;3.45;2.72;;;29.40;87.10;;;;;;6311389;22;20063;-76
2023/06/30 06:06:14;;;;;;;5.10;2.65;;;29.60;87.60;;;;;;6322290;22;20002;-71
2023/06/30 06:08:43;;;;;;;10.95;3.28;;;31.00;85.50;;;;;;6285266;22;20011;-71
2023/06/30 06:11:08;;;;;;;3.05;2.40;;;31.60;82.80;;;;;;6321546;22;19995;-72
2023/06/30 06:13:38;;;;;;;8.23;2.83;;;32.30;80.70;;;;;;6349383;22;20407;-73
2023/06/30 06:16:06;;;;;;;6.82;2.95;;;32.70;78.40;;;;;;6260089;22;20013;-72
2023/06/30 06:18:32;;;;;;;9.32;3.35;;;33.60;75.60;;;;;;6285755;22;20002;-71
2023/06/30 06:20:58;;;;;;;4.13;2.80;;;33.80;75.20;;;;;;6311051;22;20411;-72
2023/06/30 06:23:25;;;;;;;3.72;2.20;;;34.00;74.30;;;;;;6348483;22;20037;-73
2023/06/30 06:25:51;;;;;;;5.55;3.00;;;34.50;72.10;;;;;;6321881;22;20003;-74
2023/06/30 06:28:17;;;;;;;2.95;2.65;;;34.30;71.70;;;;;;6285297;22;19998;-74
2023/06/30 06:30:44;;;;;;;2.30;1.92;;;33.40;70.80;;;;;;6284938;22;20053;-73
2023/06/30 06:33:10;;;;;;;7.72;3.55;;;33.90;71.50;;;;;;6284339;22;20044;-73
2023/06/30 06:35:36;;;;;;;4.43;2.45;;;34.20;71.60;;;;;;6285208;22;19999;-72
2023/06/30 06:38:02;;;;;;;4.93;2.22;;;35.50;70.60;;;;;;6284967;22;19999;-73
2023/06/30 06:40:28;;;;;;;4.43;2.15;;;35.90;67.30;;;;;;6321060;22;19999;-72
2023/06/30 06:42:55;;;;;;;5.20;2.38;;;36.20;67.90;;;;;;6284701;22;20083;-73
2023/06/30 06:45:26;;;;;;;6.40;2.97;;;36.00;67.80;;;;;;6286685;22;20018;-73
2023/06/30 06:48:21;;;;;;;6.53;2.72;;;35.80;67.20;;;;;;6311405;22;19999;-73
2023/06/30 06:50:49;;;;;;;2.42;2.15;;;36.10;66.20;;;;;;6348421;22;19999;-74
2023/06/30 06:53:24;;;;;;;2.53;2.25;;;36.40;65.60;;;;;;6311302;22;19991;-72
2023/06/30 06:55:52;;;;;;;2.40;1.50;;;36.50;63.90;;;;;;6349445;22;20048;-74
2023/06/30 06:58:18;;;;;;;4.80;2.88;;;36.00;64.50;;;;;;6349372;22;20002;-73
2023/06/30 07:00:45;;;;;;;6.40;2.05;;;36.60;64.20;;;;;;6311354;22;20087;-72
2023/06/30 07:03:11;;;;;;;3.42;1.88;;;37.30;62.60;;;;;;6313764;22;20011;-72
2023/06/30 07:05:39;;;;;;;9.57;2.97;;;37.60;62.50;;;;;;6285469;22;20422;-72
2023/06/30 07:08:08;;;;;;;7.93;2.63;;;37.70;61.50;;;;;;6348921;22;20287;-74
2023/06/30 07:10:34;;;;;;;5.82;1.83;;;37.60;61.70;;;;;;6311486;22;19998;-72
2023/06/30 07:13:01;;;;;;;2.20;1.67;;;37.70;61.30;;;;;;6348198;22;19998;-76
2023/06/30 07:15:27;;;;;;;3.53;2.25;;;39.10;59.90;;;;;;6348996;22;20003;-73
2023/06/30 07:17:53;;;;;;;1.92;1.65;;;39.40;58.70;;;;;;6283785;22;20430;-72
2023/06/30 07:20:19;;;;;;;4.60;2.17;;;39.00;58.00;;;;;;6258905;22;20063;-73
2023/06/30 07:22:46;;;;;;;2.30;1.17;;;39.90;57.70;;;;;;6347983;22;20002;-72
2023/06/30 07:25:12;;;;;;;4.10;1.90;;;39.30;56.90;;;;;;6310613;22;20007;-74
2023/06/30 07:27:38;;;;;;;2.33;1.45;;;39.70;57.40;;;;;;6349048;22;20058;-73
2023/06/30 07:30:05;;;;;;;2.25;1.77;;;40.10;55.80;;;;;;6348848;22;20026;-71
2023/06/30 07:32:33;;;;;;;3.42;1.67;;;40.10;55.30;;;;;;6316120;22;20006;-71
2023/06/30 07:35:01;;;;;;;6.28;1.38;;;40.20;55.20;;;;;;6348865;22;20002;-72
2023/06/30 07:37:27;;;;;;;4.13;1.83;;;39.90;55.70;;;;;;6284209;22;20005;-73
2023/06/30 07:39:53;;;;;;;2.28;1.25;;;39.90;55.90;;;;;;6321127;22;20302;-72
2023/06/30 07:42:19;;;;;;;3.00;1.98;;;38.90;54.30;;;;;;6348180;22;19991;-72
2023/06/30 07:44:44;;;;;;;1.48;1.38;;;39.70;54.90;;;;;;6349011;22;20002;-72
2023/06/30 07:47:10;;;;;;;2.53;1.88;;;40.10;54.50;;;;;;6321016;22;19995;-72
2023/06/30 07:49:37;;;;;;;2.83;1.45;;;40.40;54.80;;;;;;6284780;22;20017;-72
2023/06/30 07:52:03;;;;;;;3.22;2.05;;;40.50;54.00;;;;;;6320740;22;19999;-72
2023/06/30 07:54:29;;;;;;;1.98;1.75;;;40.50;53.70;;;;;;6284582;22;20434;-71
2023/06/30 07:56:55;;;;;;;2.08;1.42;;;41.80;53.50;;;;;;6321337;22;19999;-71
2023/06/30 07:59:21;;;;;;;3.70;1.63;;;41.70;50.90;;;;;;6285233;22;19999;-72
2023/06/30 08:01:47;;;;;;;1.48;1.23;;;39.10;52.90;;;;;;6284829;22;20044;-72
2023/06/30 08:04:13;;;;;;;4.55;1.30;;;40.40;52.20;;;;;;6348652;22;20010;-72
2023/06/30 08:06:39;;;;;;;3.95;1.45;;;40.50;51.00;;;;;;6320006;22;20353;-72
2023/06/30 08:09:05;;;;;;;2.80;1.40;;;41.40;52.40;;;;;;6258638;22;20485;-71
2023/06/30 08:11:30;;;;;;;2.13;1.75;;;41.30;51.10;;;;;;6347192;22;19994;-72
2023/06/30 08:13:56;;;;;;;4.40;1.50;;;41.30;51.40;;;;;;6345183;22;20457;-71
2023/06/30 08:16:22;;;;;;;1.48;1.00;;;41.20;52.30;;;;;;6320457;22;20075;-72
2023/06/30 08:18:48;;;;;;;1.85;1.10;;;41.90;51.30;;;;;;6294110;22;20003;-72
2023/06/30 08:21:16;;;;;;;2.65;1.15;;;41.20;50.60;;;;;;6283890;22;20856;-74
2023/06/30 08:23:42;;;;;;;1.25;0.90;;;41.90;49.30;;;;;;6284242;22;20018;-72
2023/06/30 08:26:07;;;;;;;5.57;1.45;;;41.90;50.30;;;;;;6347264;22;19994;-73
2023/06/30 08:28:33;;;;;;;2.45;1.23;;;42.20;49.00;;;;;;6320375;22;20009;-72
2023/06/30 08:30:59;;;;;;;1.33;0.55;;;42.50;49.00;;;;;;6347363;22;20022;-72
2023/06/30 08:33:29;;;;;;;1.90;1.23;;;42.30;48.80;;;;;;6283661;22;20003;-71
2023/06/30 08:35:55;;;;;;;2.72;1.63;;;42.30;49.10;;;;;;6320433;22;20002;-71
2023/06/30 08:38:21;;;;;;;2.88;1.65;;;42.20;47.90;;;;;;6347779;22;20030;-72
2023/06/30 08:40:47;;;;;;;3.95;1.13;;;41.60;48.70;;;;;;6347479;22;19998;-74
2023/06/30 08:43:13;;;;;;;3.30;1.58;;;38.30;49.70;;;;;;6257611;22;20072;-72
2023/06/30 08:45:42;;;;;;;3.58;1.17;;;39.70;52.00;;;;;;6320054;22;20496;-72
2023/06/30 08:48:09;;;;;;;1.30;0.57;;;41.80;49.10;;;;;;6283964;22;20018;-72
2023/06/30 08:50:35;;;;;;;4.18;1.30;;;41.70;47.60;;;;;;6320240;22;19991;-72
2023/06/30 08:53:03;;;;;;;7.85;1.10;;;42.50;48.10;;;;;;6346635;22;20426;-72
2023/06/30 08:55:29;;;;;;;2.27;1.70;;;42.00;48.30;;;;;;6347753;22;19998;-72
2023/06/30 08:57:56;;;;;;;4.75;1.33;;;41.00;47.70;;;;;;6348183;22;20436;-72
2023/06/30 09:00:25;;;;;;;3.15;1.27;;;39.80;48.10;;;;;;6283454;22;19999;-72
2023/06/30 09:02:54;;;;;;;3.55;1.63;;;39.10;50.40;;;;;;6313262;22;20019;-72
2023/06/30 09:05:28;;;;;;;3.50;1.13;;;39.50;49.80;;;;;;6309087;22;20005;-72
2023/06/30 09:07:56;;;;;;;3.92;1.27;;;39.90;50.40;;;;;;6347789;22;20368;-72
2023/06/30 09:10:26;;;;;;;7.10;1.37;;;40.60;50.00;;;;;;6320208;22;20008;-72
2023/06/30 09:12:57;;;;;;;6.20;1.83;;;41.20;48.90;;;;;;6346977;22;20434;-72
2023/06/30 09:15:24;;;;;;;2.28;1.50;;;39.60;49.60;;;;;;6319610;22;20412;-72
2023/06/30 09:17:52;;;;;;;1.70;1.50;;;36.70;51.30;;;;;;6319862;22;19995;-72
2023/06/30 09:20:20;;;;;;;2.55;1.02;;;35.20;51.70;;;;;;6281284;22;19999;-72
2023/06/30 09:22:47;;;;;;;3.25;1.92;;;35.40;52.20;;;;;;6282694;22;20885;-71
2023/06/30 09:25:25;;;;;;;2.80;1.55;;;35.30;52.10;;;;;;6282749;22;20006;-72
2023/06/30 09:27:51;;;;;;;2.15;1.77;;;36.30;51.00;;;;;;6347066;22;20003;-72
2023/06/30 09:30:17;;;;;;;4.00;1.95;;;36.00;53.40;;;;;;6317664;22;20019;-73
2023/06/30 09:32:43;;;;;;;5.60;1.83;;;36.30;52.50;;;;;;6282477;22;20010;-71
2023/06/30 09:35:14;;;;;;;4.00;1.85;;;36.80;51.30;;;;;;6348009;22;20042;-71
2023/06/30 09:37:46;;;;;;;3.13;1.40;;;36.60;52.90;;;;;;6308991;22;20322;-71
2023/06/30 09:40:14;;;;;;;2.28;1.05;;;36.20;51.10;;;;;;6346578;22;20071;-71
2023/06/30 09:42:44;;;;;;;4.10;1.98;;;36.20;51.40;;;;;;6319610;22;20085;-72
2023/06/30 09:45:13;;;;;;;1.70;1.15;;;35.90;52.20;;;;;;6319613;22;20073;-72
2023/06/30 09:47:39;;;;;;;4.00;1.25;;;35.30;51.00;;;;;;6319961;22;19995;-71
2023/06/30 09:50:05;;;;;;;1.45;1.35;;;34.90;52.70;;;;;;6309435;22;20007;-71
2023/06/30 09:52:36;;;;;;;1.73;1.25;;;35.40;50.40;;;;;;6346499;22;20303;-74
2023/06/30 09:55:13;;;;;;;2.53;1.00;;;35.80;51.60;;;;;;6346977;22;20022;-72
2023/06/30 09:57:43;;;;;;;1.88;1.30;;;34.90;53.00;;;;;;6283192;22;20006;-73
2023/06/30 10:00:16;;;;;;;2.08;1.50;;;34.40;53.30;;;;;;6283452;22;20010;-73
2023/06/30 10:02:44;;;;;;;3.33;1.85;;;34.20;52.40;;;;;;6283242;22;20022;-72
2023/06/30 10:05:10;;;;;;;3.95;1.20;;;32.20;51.80;;;;;;6283193;22;20314;-71
2023/06/30 10:07:40;;;;;;;3.00;1.50;;;32.50;54.10;;;;;;6283371;22;20006;-71
2023/06/30 10:10:09;;;;;;;4.03;1.80;;;34.80;53.70;;;;;;6318480;22;19999;-71
2023/06/30 10:12:37;;;;;;;3.15;1.95;;;36.30;52.90;;;;;;6318916;22;19995;-71
2023/06/30 10:15:05;;;;;;;3.22;1.67;;;37.10;50.80;;;;;;6309379;22;20003;-72
2023/06/30 10:17:32;;;;;;;2.85;1.50;;;37.80;50.80;;;;;;6284840;22;19995;-73
2023/06/30 10:20:00;;;;;;;1.83;1.25;;;37.90;51.40;;;;;;6321436;22;20322;-73
2023/06/30 10:22:26;;;;;;;5.15;1.73;;;37.00;51.60;;;;;;6348444;22;20318;-73
2023/06/30 10:24:54;;;;;;;4.47;1.38;;;36.20;50.70;;;;;;6321139;22;19998;-71
2023/06/30 10:27:22;;;;;;;4.55;1.65;;;36.10;52.80;;;;;;6284411;22;20018;-73
2023/06/30 10:29:48;;;;;;;1.52;1.23;;;34.90;52.10;;;;;;6285633;22;20003;-71
2023/06/30 10:32:14;;;;;;;5.95;1.38;;;33.40;53.50;;;;;;6344868;22;20060;-73
2023/06/30 10:34:41;;;;;;;7.63;1.52;;;34.10;52.60;;;;;;6311311;22;20374;-73
2023/06/30 10:37:07;;;;;;;1.95;1.48;;;33.40;51.90;;;;;;6321117;22;20418;-71
2023/06/30 10:39:34;;;;;;;1.55;1.00;;;33.30;53.10;;;;;;6284958;22;20006;-72
2023/06/30 10:42:00;;;;;;;3.72;1.63;;;32.70;53.20;;;;;;6320770;22;20030;-72
2023/06/30 10:44:37;;;;;;;1.98;1.08;;;32.10;54.60;;;;;;6321124;22;20017;-73
2023/06/30 10:47:04;;;;;;;3.10;1.20;;;31.20;56.20;;;;;;6321497;22;20010;-71
2023/06/30 10:49:33;;;;;;;5.70;1.42;;;30.30;55.00;;;;;;6321360;22;20314;-71
2023/06/30 10:52:04;;;;;;;4.15;1.80;;;29.80;56.70;;;;;;6348230;22;19994;-71
2023/06/30 10:54:37;;;;;;;4.03;1.13;;;30.00;57.60;;;;;;6310463;22;20011;-74
2023/06/30 10:57:15;;;;;;;4.43;1.60;;;29.60;59.10;;;;;;6310783;22;20321;-71
2023/06/30 10:59:47;;;;;;;5.77;1.50;;;29.00;57.20;;;;;;6284024;22;19999;-71
2023/06/30 11:02:19;;;;;;;2.88;1.70;;;29.10;56.30;;;;;;6345193;22;20296;-71
2023/06/30 11:04:46;;;;;;;2.42;1.38;;;28.30;57.80;;;;;;6284753;22;20013;-71
2023/06/30 11:07:25;;;;;;;6.30;1.92;;;28.70;58.50;;;;;;6284996;22;20077;-73
2023/06/30 11:09:51;;;;;;;5.38;2.35;;;29.90;56.60;;;;;;6284873;22;20006;-72
2023/06/30 11:12:18;;;;;;;3.08;1.73;;;30.50;55.90;;;;;;6320419;22;19991;-73
2023/06/30 11:15:01;;;;;;;2.70;0.98;;;30.90;57.00;;;;;;6284601;22;20010;-74
2023/06/30 11:17:54;;;;;;;3.63;1.05;;;30.70;54.20;;;;;;6285067;22;20094;-75
2023/06/30 11:20:26;;;;;;;1.75;1.27;;;31.00;56.80;;;;;;6268825;22;20007;-72
2023/06/30 11:23:04;;;;;;;1.73;1.27;;;31.00;56.50;;;;;;6283807;22;20002;-72
2023/06/30 11:25:31;;;;;;;3.30;1.30;;;29.30;56.40;;;;;;6284334;22;20003;-72
2023/06/30 11:27:58;;;;;;;2.25;1.13;;;30.10;57.50;;;;;;6308673;22;20313;-72
2023/06/30 11:30:25;;;;;;;5.03;2.10;;;29.70;57.30;;;;;;6283306;22;19999;-71
2023/06/30 11:32:58;;;;;;;2.83;1.52;;;29.70;56.80;;;;;;6340775;22;20003;-72
2023/06/30 11:35:26;;;;;;;3.40;1.30;;;28.30;57.50;;;;;;6320840;22;19999;-71
2023/06/30 11:37:53;;;;;;;5.43;0.93;;;28.00;60.00;;;;;;6310237;22;20002;-71
2023/06/30 11:40:19;;;;;;;5.50;1.48;;;28.40;60.50;;;;;;6348562;22;19999;-70
2023/06/30 11:42:45;;;;;;;4.78;1.67;;;28.30;58.90;;;;;;6284260;22;19999;-70
2023/06/30 11:45:20;;;;;;;3.38;1.05;;;28.70;60.30;;;;;;6348485;22;20102;-75
2023/06/30 11:47:51;;;;;;;3.70;1.65;;;28.70;60.00;;;;;;6284345;22;19999;-70
2023/06/30 11:50:18;;;;;;;1.73;1.25;;;28.00;57.50;;;;;;6285307;22;20080;-71
2023/06/30 11:52:47;;;;;;;2.65;1.40;;;27.40;59.50;;;;;;6284491;22;19994;-70
2023/06/30 11:55:14;;;;;;;1.85;1.25;;;27.90;61.30;;;;;;6348561;22;20002;-71
2023/06/30 11:57:41;;;;;;;2.47;1.10;;;27.70;61.30;;;;;;6310122;22;20005;-71
2023/06/30 12:00:19;;;;;;;3.30;1.65;;;28.20;60.30;;;;;;6284441;22;20001;-70
2023/06/30 12:02:57;;;;;;;1.98;1.42;;;29.10;59.40;;;;;;6291367;22;20023;-71
2023/06/30 12:05:25;;;;;;;5.73;1.13;;;29.80;57.30;;;;;;6348189;22;20299;-71
2023/06/30 12:07:52;;;;;;;4.45;0.98;;;30.30;58.10;;;;;;6347814;22;20221;-71
2023/06/30 12:10:18;;;;;;;5.28;1.77;;;30.70;55.60;;;;;;6284577;22;20007;-71
2023/06/30 12:12:54;;;;;;;1.55;1.40;;;31.00;55.30;;;;;;6347183;22;20314;-73
2023/06/30 12:15:21;;;;;;;0.88;0.88;;;31.40;57.00;;;;;;6320736;22;20312;-74
2023/06/30 12:17:54;;;;;;;1.40;1.30;;;30.90;56.00;;;;;;6284498;22;20007;-73
2023/06/30 12:20:31;;;;;;;6.60;1.40;;;31.60;57.80;;;;;;6284371;22;20002;-71
2023/06/30 12:22:57;;;;;;;1.25;1.10;;;31.90;55.20;;;;;;6347765;22;20042;-71
2023/06/30 12:25:38;;;;;;;4.07;1.42;;;30.70;59.00;;;;;;6258530;22;20048;-72
2023/06/30 12:28:05;;;;;;;3.15;1.30;;;30.40;56.80;;;;;;6347618;22;20010;-71
2023/06/30 12:30:31;;;;;;;2.35;1.50;;;29.90;57.20;;;;;;6258429;22;20010;-75
2023/06/30 12:32:59;;;;;;;3.03;1.80;;;29.00;59.20;;;;;;6313065;22;20011;-71
2023/06/30 12:35:29;;;;;;;1.63;1.08;;;28.80;59.00;;;;;;6284095;22;20410;-70
2023/06/30 12:37:56;;;;;;;1.67;1.50;;;29.10;58.70;;;;;;6284063;22;19999;-72
2023/06/30 12:40:22;;;;;;;5.20;2.58;;;29.50;58.80;;;;;;6284174;22;20003;-70
2023/06/30 12:42:51;;;;;;;2.30;2.10;;;29.40;58.80;;;;;;6319452;22;20014;-70
2023/06/30 12:45:17;;;;;;;2.00;1.23;;;29.30;58.60;;;;;;6284093;22;19999;-74
2023/06/30 12:47:43;;;;;;;5.88;3.42;;;29.10;59.10;;;;;;6284000;22;20491;-71